createdAt,value
2022-11-05T00:00:50.818Z,51.185757
2022-11-05T00:01:50.841Z,51.185814
2022-11-05T00:02:50.797Z,51.185772
2022-11-05T00:03:50.872Z,51.185799
2022-11-05T00:04:50.783Z,51.185783
2022-11-05T00:05:50.779Z,51.185760
2022-11-05T00:06:50.777Z,51.185814
2022-11-05T00:07:50.759Z,51.185848
2022-11-05T00:08:50.762Z,51.185825
2022-11-05T00:09:50.754Z,51.185760
2022-11-05T00:10:51.017Z,51.185814
2022-11-05T00:11:50.734Z,51.185833
2022-11-05T00:12:50.732Z,51.185852
2022-11-05T00:13:50.744Z,51.185852
2022-11-05T00:14:50.718Z,51.185848
2022-11-05T00:15:50.703Z,51.185837
2022-11-05T00:16:50.694Z,51.185856
2022-11-05T00:17:50.689Z,51.185875
2022-11-05T00:18:50.681Z,51.185867
2022-11-05T00:19:51.060Z,51.185837
2022-11-05T00:20:50.814Z,51.185822
2022-11-05T00:21:50.922Z,51.185818
2022-11-05T00:22:50.646Z,51.185760
2022-11-05T00:23:50.645Z,51.185791
2022-11-05T00:24:50.632Z,51.185783
2022-11-05T00:25:50.631Z,51.185802
2022-11-05T00:26:50.626Z,51.185795
2022-11-05T00:27:51.734Z,51.185841
2022-11-05T00:28:50.613Z,51.185860
2022-11-05T00:29:50.644Z,51.185814
2022-11-05T00:30:50.598Z,51.185764
2022-11-05T00:31:50.588Z,51.185764
2022-11-05T00:32:51.234Z,51.185757
2022-11-05T00:33:50.790Z,51.185753
2022-11-05T00:34:50.563Z,51.185802
2022-11-05T00:35:50.577Z,51.185795
2022-11-05T00:36:50.564Z,51.185860
2022-11-05T00:37:50.859Z,51.185760
2022-11-05T00:38:50.542Z,51.185860
2022-11-05T00:39:50.531Z,51.185879
2022-11-05T00:40:50.990Z,51.185722
2022-11-05T00:41:50.524Z,51.185772
2022-11-05T00:42:50.507Z,51.185768
2022-11-05T00:43:50.525Z,51.185738
2022-11-05T00:44:50.500Z,51.185795
2022-11-05T00:45:50.523Z,51.185802
2022-11-05T00:46:50.485Z,51.185768
2022-11-05T00:47:50.499Z,51.185768
2022-11-05T00:48:50.470Z,51.185772
2022-11-05T00:49:50.475Z,51.185753
2022-11-05T00:50:51.371Z,51.185722
2022-11-05T00:51:50.462Z,51.185787
2022-11-05T00:52:50.466Z,51.185825
2022-11-05T00:53:50.438Z,51.185841
2022-11-05T00:54:50.456Z,51.185833
2022-11-05T00:55:50.427Z,51.185883
2022-11-05T00:56:50.410Z,51.185848
2022-11-05T00:57:50.404Z,51.185757
2022-11-05T00:58:50.405Z,51.185810
2022-11-05T00:59:50.402Z,51.185844
2022-11-05T01:00:50.394Z,51.185848
2022-11-05T01:01:50.649Z,51.185848
2022-11-05T01:02:50.644Z,51.185841
2022-11-05T01:03:51.912Z,51.185810
2022-11-05T01:04:50.368Z,51.185822
2022-11-05T01:05:50.380Z,51.185787
2022-11-05T01:06:50.349Z,51.185776
2022-11-05T01:07:50.346Z,51.185768
2022-11-05T01:08:50.330Z,51.185726
2022-11-05T01:09:50.328Z,51.185783
2022-11-05T01:10:50.323Z,51.185780
2022-11-05T01:11:50.329Z,51.185829
2022-11-05T01:12:50.323Z,51.185841
2022-11-05T01:13:50.300Z,51.185829
2022-11-05T01:14:50.285Z,51.185810
2022-11-05T01:15:50.281Z,51.185795
2022-11-05T01:16:50.278Z,51.185810
2022-11-05T01:17:50.303Z,51.185810
2022-11-05T01:18:50.281Z,51.185818
2022-11-05T01:19:51.617Z,51.185875
2022-11-05T01:20:50.244Z,51.185848
2022-11-05T01:21:50.242Z,51.185841
2022-11-05T01:22:50.243Z,51.185833
2022-11-05T01:23:50.225Z,51.185837
2022-11-05T01:24:50.229Z,51.185833
2022-11-05T01:25:50.221Z,51.185841
2022-11-05T01:26:50.202Z,51.185833
2022-11-05T01:27:50.217Z,51.185814
2022-11-05T01:28:50.326Z,51.185833
2022-11-05T01:29:50.205Z,51.185844
2022-11-05T01:30:50.183Z,51.185837
2022-11-05T01:31:50.171Z,51.185852
2022-11-05T01:32:50.167Z,51.185829
2022-11-05T01:33:50.288Z,51.185841
2022-11-05T01:34:50.149Z,51.185814
2022-11-05T01:35:50.154Z,51.185829
2022-11-05T01:36:50.135Z,51.185844
2022-11-05T01:37:50.129Z,51.185799
2022-11-05T01:38:50.127Z,51.185768
2022-11-05T01:39:50.128Z,51.185829
2022-11-05T01:40:50.112Z,51.185822
2022-11-05T01:41:50.121Z,51.185825
2022-11-05T01:42:50.106Z,51.185822
2022-11-05T01:43:50.091Z,51.185837
2022-11-05T01:44:50.613Z,51.185860
2022-11-05T01:45:50.074Z,51.185879
2022-11-05T01:46:50.084Z,51.185837
2022-11-05T01:47:50.066Z,51.185841
2022-11-05T01:48:50.052Z,51.185802
2022-11-05T01:49:50.138Z,51.185829
2022-11-05T01:50:50.055Z,51.185696
2022-11-05T01:51:50.812Z,51.185669
2022-11-05T01:52:50.043Z,51.185722
2022-11-05T01:53:50.033Z,51.185883
2022-11-05T01:54:50.005Z,51.185852
2022-11-05T01:55:50.005Z,51.185810
2022-11-05T01:56:50.021Z,51.185791
2022-11-05T01:57:49.985Z,51.185825
2022-11-05T01:58:50.008Z,51.185806
2022-11-05T01:59:49.972Z,51.185837
2022-11-05T02:00:49.969Z,51.185822
2022-11-05T02:01:50.775Z,51.185833
2022-11-05T02:02:50.238Z,51.185802
2022-11-05T02:03:49.989Z,51.185749
2022-11-05T02:04:49.947Z,51.185844
2022-11-05T02:05:49.963Z,51.185791
2022-11-05T02:06:49.935Z,51.185852
2022-11-05T02:07:49.922Z,51.185741
2022-11-05T02:08:50.612Z,51.185772
2022-11-05T02:09:49.903Z,51.185715
2022-11-05T02:10:49.936Z,51.185791
2022-11-05T02:11:49.885Z,51.185848
2022-11-05T02:12:49.900Z,51.185860
2022-11-05T02:13:49.881Z,51.185814
2022-11-05T02:14:49.868Z,51.185837
2022-11-05T02:15:49.864Z,51.185829
2022-11-05T02:16:49.855Z,51.185806
2022-11-05T02:17:49.848Z,51.185783
2022-11-05T02:18:49.845Z,51.185707
2022-11-05T02:19:49.856Z,51.185886
2022-11-05T02:20:52.336Z,51.185814
2022-11-05T02:21:50.236Z,51.185825
2022-11-05T02:22:49.813Z,51.185822
2022-11-05T02:23:49.808Z,51.185780
2022-11-05T02:24:49.803Z,51.185841
2022-11-05T02:25:49.797Z,51.185791
2022-11-05T02:26:49.779Z,51.185806
2022-11-05T02:27:49.798Z,51.185818
2022-11-05T02:28:49.781Z,51.185753
2022-11-05T02:29:49.760Z,51.185688
2022-11-05T02:30:49.760Z,51.185749
2022-11-05T02:31:49.749Z,51.185772
2022-11-05T02:32:49.740Z,51.185814
2022-11-05T02:33:49.750Z,51.185757
2022-11-05T02:34:49.727Z,51.185642
2022-11-05T02:35:50.300Z,51.185745
2022-11-05T02:36:49.722Z,51.185791
2022-11-05T02:37:49.730Z,51.185833
2022-11-05T02:38:49.694Z,51.185696
2022-11-05T02:39:49.695Z,51.185902
2022-11-05T02:40:49.686Z,51.185795
2022-11-05T02:41:49.676Z,51.185871
2022-11-05T02:42:49.673Z,51.185879
2022-11-05T02:43:49.670Z,51.185814
2022-11-05T02:44:49.669Z,51.185764
2022-11-05T02:45:49.649Z,51.185837
2022-11-05T02:46:49.651Z,51.185757
2022-11-05T02:47:50.178Z,51.185780
2022-11-05T02:48:49.626Z,51.185783
2022-11-05T02:49:50.293Z,51.185726
2022-11-05T02:50:49.644Z,51.185772
2022-11-05T02:51:49.619Z,51.185764
2022-11-05T02:52:49.611Z,51.185738
2022-11-05T02:53:49.616Z,51.185799
2022-11-05T02:54:49.594Z,51.185772
2022-11-05T02:55:49.614Z,51.185787
2022-11-05T02:56:49.596Z,51.185764
2022-11-05T02:57:49.565Z,51.185600
2022-11-05T02:58:49.551Z,51.185501
2022-11-05T02:59:50.828Z,51.185497
2022-11-05T03:00:49.538Z,51.185684
2022-11-05T03:01:49.694Z,51.185768
2022-11-05T03:02:49.730Z,51.185699
2022-11-05T03:03:49.521Z,51.185501
2022-11-05T03:04:49.517Z,51.185493
2022-11-05T03:05:49.508Z,51.185627
2022-11-05T03:06:49.556Z,51.185776
2022-11-05T03:07:49.490Z,51.185791
2022-11-05T03:08:49.488Z,51.185776
2022-11-05T03:09:49.745Z,51.185802
2022-11-05T03:10:50.649Z,51.185795
2022-11-05T03:11:49.464Z,51.185829
2022-11-05T03:12:49.455Z,51.185783
2022-11-05T03:13:49.444Z,51.185913
2022-11-05T03:14:50.106Z,51.185856
2022-11-05T03:15:49.861Z,51.185772
2022-11-05T03:16:49.434Z,51.185822
2022-11-05T03:17:49.432Z,51.185818
2022-11-05T03:18:49.416Z,51.185844
2022-11-05T03:19:49.413Z,51.185810
2022-11-05T03:20:49.853Z,51.185780
2022-11-05T03:21:49.391Z,51.185787
2022-11-05T03:22:49.398Z,51.185783
2022-11-05T03:23:49.387Z,51.185799
2022-11-05T03:24:49.374Z,51.185822
2022-11-05T03:25:49.387Z,51.185810
2022-11-05T03:26:49.373Z,51.185799
2022-11-05T03:27:49.351Z,51.185810
2022-11-05T03:28:49.353Z,51.185810
2022-11-05T03:29:49.338Z,51.185814
2022-11-05T03:30:49.331Z,51.185795
2022-11-05T03:31:49.334Z,51.185799
2022-11-05T03:32:49.322Z,51.185814
2022-11-05T03:33:49.335Z,51.185783
2022-11-05T03:34:49.302Z,51.185749
2022-11-05T03:35:49.304Z,51.185799
2022-11-05T03:36:49.292Z,51.185825
2022-11-05T03:37:49.284Z,51.185833
2022-11-05T03:38:49.780Z,51.185795
2022-11-05T03:39:49.270Z,51.185841
2022-11-05T03:40:49.260Z,51.185802
2022-11-05T03:41:49.287Z,51.185810
2022-11-05T03:42:49.248Z,51.185810
2022-11-05T03:43:49.652Z,51.185837
2022-11-05T03:44:49.237Z,51.185841
2022-11-05T03:45:49.223Z,51.185822
2022-11-05T03:46:49.233Z,51.185810
2022-11-05T03:47:49.632Z,51.185791
2022-11-05T03:48:49.289Z,51.185806
2022-11-05T03:49:49.204Z,51.185780
2022-11-05T03:50:49.184Z,51.185814
2022-11-05T03:51:49.187Z,51.185810
2022-11-05T03:52:49.179Z,51.185822
2022-11-05T03:53:49.819Z,51.185795
2022-11-05T03:54:49.158Z,51.185799
2022-11-05T03:55:49.159Z,51.185822
2022-11-05T03:56:49.159Z,51.185829
2022-11-05T03:57:49.161Z,51.185787
2022-11-05T03:58:50.032Z,51.185822
2022-11-05T03:59:49.141Z,51.185795
2022-11-05T04:00:49.112Z,51.185783
2022-11-05T04:01:49.293Z,51.185810
2022-11-05T04:02:49.272Z,51.185787
2022-11-05T04:03:49.101Z,51.185787
2022-11-05T04:04:49.096Z,51.185814
2022-11-05T04:05:49.080Z,51.185795
2022-11-05T04:06:49.629Z,51.185833
2022-11-05T04:07:49.064Z,51.185867
2022-11-05T04:08:49.059Z,51.185856
2022-11-05T04:09:49.064Z,51.185818
2022-11-05T04:10:49.085Z,51.185810
2022-11-05T04:11:49.687Z,51.185795
2022-11-05T04:12:49.032Z,51.185799
2022-11-05T04:13:49.053Z,51.185791
2022-11-05T04:14:49.014Z,51.185768
2022-11-05T04:15:49.032Z,51.185810
2022-11-05T04:16:49.003Z,51.185841
2022-11-05T04:17:48.993Z,51.185795
2022-11-05T04:18:48.991Z,51.185806
2022-11-05T04:19:48.988Z,51.185791
2022-11-05T04:20:48.969Z,51.185856
2022-11-05T04:21:48.982Z,51.185837
2022-11-05T04:22:48.960Z,51.185814
2022-11-05T04:23:48.955Z,51.185825
2022-11-05T04:24:48.949Z,51.185795
2022-11-05T04:25:48.987Z,51.185791
2022-11-05T04:26:48.943Z,51.185814
2022-11-05T04:27:48.924Z,51.185799
2022-11-05T04:28:48.922Z,51.185810
2022-11-05T04:29:49.107Z,51.185825
2022-11-05T04:30:48.910Z,51.185818
2022-11-05T04:31:48.921Z,51.185814
2022-11-05T04:32:48.888Z,51.185822
2022-11-05T04:33:48.888Z,51.185783
2022-11-05T04:34:48.871Z,51.185829
2022-11-05T04:35:48.873Z,51.185795
2022-11-05T04:36:48.866Z,51.185795
2022-11-05T04:37:48.855Z,51.185795
2022-11-05T04:38:48.857Z,51.185772
2022-11-05T04:39:48.835Z,51.185768
2022-11-05T04:40:48.829Z,51.185760
2022-11-05T04:41:48.965Z,51.185783
2022-11-05T04:42:48.830Z,51.185741
2022-11-05T04:43:48.815Z,51.185768
2022-11-05T04:44:48.808Z,51.185814
2022-11-05T04:45:48.825Z,51.185814
2022-11-05T04:46:48.792Z,51.185806
2022-11-05T04:47:49.201Z,51.185844
2022-11-05T04:48:48.778Z,51.185822
2022-11-05T04:49:48.777Z,51.185814
2022-11-05T04:50:48.761Z,51.185799
2022-11-05T04:51:48.762Z,51.185806
2022-11-05T04:52:48.749Z,51.185841
2022-11-05T04:53:48.743Z,51.185890
2022-11-05T04:54:48.737Z,51.185822
2022-11-05T04:55:48.724Z,51.185829
2022-11-05T04:56:48.715Z,51.185844
2022-11-05T04:57:48.720Z,51.185848
2022-11-05T04:58:48.724Z,51.185753
2022-11-05T04:59:48.704Z,51.185783
2022-11-05T05:00:48.893Z,51.185818
2022-11-05T05:01:48.771Z,51.185795
2022-11-05T05:02:48.679Z,51.185814
2022-11-05T05:03:48.670Z,51.185825
2022-11-05T05:04:48.673Z,51.185848
2022-11-05T05:05:48.682Z,51.185802
2022-11-05T05:06:49.644Z,51.185806
2022-11-05T05:07:48.644Z,51.185764
2022-11-05T05:08:48.632Z,51.185780
2022-11-05T05:09:48.634Z,51.185787
2022-11-05T05:10:48.619Z,51.185776
2022-11-05T05:11:49.216Z,51.185791
2022-11-05T05:12:48.614Z,51.185799
2022-11-05T05:13:48.602Z,51.185802
2022-11-05T05:14:48.609Z,51.185787
2022-11-05T05:15:49.474Z,51.185780
2022-11-05T05:16:48.586Z,51.185806
2022-11-05T05:17:48.597Z,51.185791
2022-11-05T05:18:48.575Z,51.185749
2022-11-05T05:19:48.561Z,51.185764
2022-11-05T05:20:48.561Z,51.185841
2022-11-05T05:21:48.579Z,51.185825
2022-11-05T05:22:48.540Z,51.185829
2022-11-05T05:23:48.556Z,51.185810
2022-11-05T05:24:52.584Z,51.185810
2022-11-05T05:25:48.522Z,51.185829
2022-11-05T05:26:48.542Z,51.185841
2022-11-05T05:27:48.513Z,51.185825
2022-11-05T05:28:49.229Z,51.185814
2022-11-05T05:29:48.504Z,51.185814
2022-11-05T05:30:48.494Z,51.185818
2022-11-05T05:31:48.495Z,51.185802
2022-11-05T05:32:48.473Z,51.185802
2022-11-05T05:33:48.498Z,51.185780
2022-11-05T05:34:48.465Z,51.185795
2022-11-05T05:35:48.459Z,51.185825
2022-11-05T05:36:48.450Z,51.185810
2022-11-05T05:37:48.451Z,51.185791
2022-11-05T05:38:48.455Z,51.185791
2022-11-05T05:39:48.426Z,51.185852
2022-11-05T05:40:48.424Z,51.185802
2022-11-05T05:41:48.423Z,51.185802
2022-11-05T05:42:49.150Z,51.185738
2022-11-05T05:43:48.410Z,51.185757
2022-11-05T05:44:48.433Z,51.185757
2022-11-05T05:45:48.396Z,51.185814
2022-11-05T05:46:48.385Z,51.185841
2022-11-05T05:47:48.376Z,51.185856
2022-11-05T05:48:48.372Z,51.185795
2022-11-05T05:49:48.402Z,51.185822
2022-11-05T05:50:48.361Z,51.185844
2022-11-05T05:51:48.357Z,51.185860
2022-11-05T05:52:48.360Z,51.185860
2022-11-05T05:53:48.339Z,51.185787
2022-11-05T05:54:48.369Z,51.185863
2022-11-05T05:55:48.331Z,51.185841
2022-11-05T05:56:48.312Z,51.185852
2022-11-05T05:57:48.413Z,51.185802
2022-11-05T05:58:48.299Z,51.185795
2022-11-05T05:59:48.302Z,51.185802
2022-11-05T06:00:48.302Z,51.185806
2022-11-05T06:01:48.427Z,51.185814
2022-11-05T06:02:48.409Z,51.185783
2022-11-05T06:03:48.328Z,51.185791
2022-11-05T06:04:48.277Z,51.185822
2022-11-05T06:05:48.369Z,51.185825
2022-11-05T06:06:48.292Z,51.185871
2022-11-05T06:07:48.278Z,51.185852
2022-11-05T06:08:48.230Z,51.185772
2022-11-05T06:09:48.232Z,51.185860
2022-11-05T06:10:48.859Z,51.185841
2022-11-05T06:11:48.219Z,51.185822
2022-11-05T06:12:48.263Z,51.185822
2022-11-05T06:13:48.219Z,51.185860
2022-11-05T06:14:48.301Z,51.185818
2022-11-05T06:15:48.216Z,51.185822
2022-11-05T06:16:48.176Z,51.185879
2022-11-05T06:17:51.705Z,51.185856
2022-11-05T06:18:48.176Z,51.185818
2022-11-05T06:19:48.162Z,51.185844
2022-11-05T06:20:48.156Z,51.185814
2022-11-05T06:21:48.292Z,51.185795
2022-11-05T06:22:48.167Z,51.185841
2022-11-05T06:23:48.165Z,51.185841
2022-11-05T06:24:48.134Z,51.185799
2022-11-05T06:25:48.131Z,51.185806
2022-11-05T06:26:48.120Z,51.185799
2022-11-05T06:27:48.185Z,51.185833
2022-11-05T06:28:48.124Z,51.185795
2022-11-05T06:29:48.094Z,51.185764
2022-11-05T06:30:48.099Z,51.185844
2022-11-05T06:31:48.125Z,51.185837
2022-11-05T06:32:48.082Z,51.185776
2022-11-05T06:33:48.077Z,51.185799
2022-11-05T06:34:48.065Z,51.185799
2022-11-05T06:35:48.056Z,51.185799
2022-11-05T06:36:48.043Z,51.185810
2022-11-05T06:37:48.185Z,51.185799
2022-11-05T06:38:48.035Z,51.185844
2022-11-05T06:39:48.051Z,51.185810
2022-11-05T06:40:48.038Z,51.185791
2022-11-05T06:42:16.511Z,51.185799
2022-11-05T06:42:49.016Z,51.185802
2022-11-05T06:43:48.011Z,51.185760
2022-11-05T06:44:48.008Z,51.185894
2022-11-05T06:45:47.996Z,51.185955
2022-11-05T06:46:48.761Z,51.185829
2022-11-05T06:47:47.969Z,51.185841
2022-11-05T06:48:47.990Z,51.185814
2022-11-05T06:49:48.133Z,51.185749
2022-11-05T06:50:48.356Z,51.185780
2022-11-05T06:51:48.895Z,51.185799
2022-11-05T06:52:47.944Z,51.185837
2022-11-05T06:53:47.955Z,51.185780
2022-11-05T06:54:47.934Z,51.185841
2022-11-05T06:55:47.937Z,51.185802
2022-11-05T06:56:47.913Z,51.185787
2022-11-05T06:57:47.917Z,51.185833
2022-11-05T06:58:47.898Z,51.185795
2022-11-05T06:59:47.910Z,51.185837
2022-11-05T07:00:48.733Z,51.185844
2022-11-05T07:01:48.528Z,51.185768
2022-11-05T07:02:47.905Z,51.185833
2022-11-05T07:03:47.884Z,51.185749
2022-11-05T07:04:47.865Z,51.185799
2022-11-05T07:05:47.877Z,51.185810
2022-11-05T07:06:47.871Z,51.185791
2022-11-05T07:07:47.876Z,51.185841
2022-11-05T07:08:47.835Z,51.185825
2022-11-05T07:09:47.862Z,51.185837
2022-11-05T07:10:47.825Z,51.185799
2022-11-05T07:11:47.816Z,51.185833
2022-11-05T07:12:47.817Z,51.185837
2022-11-05T07:13:47.824Z,51.185818
2022-11-05T07:14:47.804Z,51.185825
2022-11-05T07:15:47.799Z,51.185802
2022-11-05T07:16:47.786Z,51.185799
2022-11-05T07:17:47.834Z,51.185810
2022-11-05T07:18:47.799Z,51.185780
2022-11-05T07:19:47.768Z,51.185799
2022-11-05T07:20:47.770Z,51.185783
2022-11-05T07:21:47.757Z,51.185799
2022-11-05T07:22:47.744Z,51.185799
2022-11-05T07:23:47.774Z,51.185818
2022-11-05T07:24:47.739Z,51.185856
2022-11-05T07:25:47.752Z,51.185814
2022-11-05T07:26:47.724Z,51.185799
2022-11-05T07:27:47.723Z,51.185818
2022-11-05T07:28:48.134Z,51.185810
2022-11-05T07:29:47.705Z,51.185829
2022-11-05T07:30:48.220Z,51.185837
2022-11-05T07:31:47.700Z,51.185799
2022-11-05T07:32:47.687Z,51.185780
2022-11-05T07:33:47.685Z,51.185802
2022-11-05T07:34:47.673Z,51.185814
2022-11-05T07:35:47.666Z,51.185787
2022-11-05T07:36:47.671Z,51.185783
2022-11-05T07:37:47.685Z,51.185860
2022-11-05T07:38:47.650Z,51.185799
2022-11-05T07:39:47.643Z,51.185753
2022-11-05T07:40:47.648Z,51.185787
2022-11-05T07:41:47.651Z,51.185799
2022-11-05T07:42:48.196Z,51.185829
2022-11-05T07:43:47.605Z,51.185814
2022-11-05T07:44:47.615Z,51.185818
2022-11-05T07:45:47.587Z,51.185810
2022-11-05T07:46:47.583Z,51.185814
2022-11-05T07:47:47.649Z,51.185818
2022-11-05T07:48:47.562Z,51.185806
2022-11-05T07:49:47.566Z,51.185841
2022-11-05T07:50:47.550Z,51.185841
2022-11-05T07:51:47.544Z,51.185829
2022-11-05T07:52:47.547Z,51.185802
2022-11-05T07:53:47.545Z,51.185810
2022-11-05T07:54:47.531Z,51.185825
2022-11-05T07:55:47.526Z,51.185795
2022-11-05T07:56:47.507Z,51.185791
2022-11-05T07:57:47.645Z,51.185841
2022-11-05T07:58:47.495Z,51.185795
2022-11-05T07:59:47.490Z,51.185806
2022-11-05T08:00:47.629Z,51.185814
2022-11-05T08:01:47.686Z,51.185802
2022-11-05T08:02:47.741Z,51.185802
2022-11-05T08:03:47.657Z,51.185818
2022-11-05T08:04:47.451Z,51.185806
2022-11-05T08:05:47.457Z,51.185783
2022-11-05T08:06:47.452Z,51.185825
2022-11-05T08:07:47.433Z,51.185780
2022-11-05T08:08:47.432Z,51.185780
2022-11-05T08:09:47.426Z,51.185825
2022-11-05T08:10:47.410Z,51.185780
2022-11-05T08:11:47.405Z,51.185814
2022-11-05T08:12:48.086Z,51.185909
2022-11-05T08:13:47.429Z,51.185810
2022-11-05T08:14:47.397Z,51.185791
2022-11-05T08:15:47.383Z,51.185814
2022-11-05T08:16:47.365Z,51.185768
2022-11-05T08:17:47.755Z,51.185711
2022-11-05T08:18:47.350Z,51.185688
2022-11-05T08:19:47.347Z,51.185757
2022-11-05T08:20:47.369Z,51.185753
2022-11-05T08:21:47.330Z,51.185760
2022-11-05T08:22:47.326Z,51.185741
2022-11-05T08:23:47.334Z,51.185738
2022-11-05T08:24:47.304Z,51.185711
2022-11-05T08:25:47.324Z,51.185734
2022-11-05T08:26:47.310Z,51.185760
2022-11-05T08:27:47.294Z,51.185791
2022-11-05T08:28:47.309Z,51.185818
2022-11-05T08:29:47.304Z,51.185791
2022-11-05T08:30:47.266Z,51.185787
2022-11-05T08:31:47.260Z,51.185749
2022-11-05T08:32:47.253Z,51.185741
2022-11-05T08:33:47.254Z,51.185780
2022-11-05T08:34:47.254Z,51.185768
2022-11-05T08:35:47.237Z,51.185738
2022-11-05T08:36:48.935Z,51.185776
2022-11-05T08:37:47.222Z,51.185776
2022-11-05T08:38:47.209Z,51.185776
2022-11-05T08:39:47.201Z,51.185772
2022-11-05T08:40:47.202Z,51.185776
2022-11-05T08:41:47.213Z,51.185749
2022-11-05T08:42:47.174Z,51.185757
2022-11-05T08:43:47.240Z,51.185780
2022-11-05T08:44:47.191Z,51.185772
2022-11-05T08:45:47.193Z,51.185776
2022-11-05T08:46:47.320Z,51.185749
2022-11-05T08:47:47.246Z,51.185749
2022-11-05T08:48:47.136Z,51.185768
2022-11-05T08:49:47.137Z,51.185749
2022-11-05T08:50:47.130Z,51.185696
2022-11-05T08:51:47.114Z,51.185677
2022-11-05T08:52:48.018Z,51.185837
2022-11-05T08:53:47.118Z,51.185856
2022-11-05T08:54:47.101Z,51.185829
2022-11-05T08:55:47.143Z,51.185764
2022-11-05T08:56:48.079Z,51.185776
2022-11-05T08:57:47.083Z,51.185772
2022-11-05T08:58:47.069Z,51.185745
2022-11-05T08:59:47.060Z,51.185783
2022-11-05T09:00:47.107Z,51.185715
2022-11-05T09:01:48.330Z,51.185741
2022-11-05T09:02:47.042Z,51.185776
2022-11-05T09:03:47.034Z,51.185703
2022-11-05T09:04:47.732Z,51.185669
2022-11-05T09:05:47.055Z,51.185726
2022-11-05T09:06:47.023Z,51.185741
2022-11-05T09:07:47.020Z,51.185745
2022-11-05T09:08:47.044Z,51.185745
2022-11-05T09:09:47.012Z,51.185799
2022-11-05T09:10:47.044Z,51.185802
2022-11-05T09:12:10.650Z,51.185730
2022-11-05T09:12:47.963Z,51.185688
2022-11-05T09:13:46.998Z,51.185619
2022-11-05T09:14:46.964Z,51.185760
2022-11-05T09:15:47.044Z,51.185799
2022-11-05T09:16:46.999Z,51.185757
2022-11-05T09:17:47.071Z,51.185688
2022-11-05T09:18:46.924Z,51.185772
2022-11-05T09:19:46.979Z,51.185883
2022-11-05T09:20:46.920Z,51.185860
2022-11-05T09:21:46.916Z,51.185699
2022-11-05T09:22:47.151Z,51.185734
2022-11-05T09:23:46.919Z,51.185780
2022-11-05T09:24:46.903Z,51.185841
2022-11-05T09:25:46.905Z,51.185802
2022-11-05T09:26:46.865Z,51.185791
2022-11-05T09:27:46.860Z,51.185822
2022-11-05T09:28:46.870Z,51.185795
2022-11-05T09:29:46.850Z,51.185852
2022-11-05T09:30:46.889Z,51.185802
2022-11-05T09:31:46.844Z,51.185730
2022-11-05T09:32:46.858Z,51.185711
2022-11-05T09:33:47.034Z,51.185684
2022-11-05T09:34:46.838Z,51.185692
2022-11-05T09:35:46.811Z,51.185677
2022-11-05T09:36:46.869Z,51.185745
2022-11-05T09:37:46.800Z,51.185760
2022-11-05T09:38:47.532Z,51.185768
2022-11-05T09:39:47.305Z,51.185757
2022-11-05T09:40:46.785Z,51.185711
2022-11-05T09:41:46.785Z,51.185699
2022-11-05T09:42:46.775Z,51.185677
2022-11-05T09:43:46.753Z,51.185726
2022-11-05T09:44:49.539Z,51.185734
2022-11-05T09:45:46.782Z,51.185734
2022-11-05T09:46:46.734Z,51.185703
2022-11-05T09:47:46.740Z,51.185696
2022-11-05T09:48:46.727Z,51.185711
2022-11-05T09:49:46.737Z,51.185673
2022-11-05T09:50:46.712Z,51.185669
2022-11-05T09:51:46.708Z,51.185623
2022-11-05T09:52:46.695Z,51.185673
2022-11-05T09:53:46.691Z,51.185699
2022-11-05T09:54:46.684Z,51.185696
2022-11-05T09:55:47.109Z,51.185696
2022-11-05T09:56:46.667Z,51.185658
2022-11-05T09:57:46.652Z,51.185684
2022-11-05T09:58:46.654Z,51.185692
2022-11-05T09:59:46.647Z,51.185802
2022-11-05T10:00:46.669Z,51.185829
2022-11-05T10:01:46.752Z,51.185802
2022-11-05T10:02:46.627Z,51.185719
2022-11-05T10:03:46.605Z,51.185711
2022-11-05T10:04:46.605Z,51.185764
2022-11-05T10:05:47.607Z,51.185741
2022-11-05T10:06:46.586Z,51.185795
2022-11-05T10:07:46.590Z,51.185768
2022-11-05T10:08:46.638Z,51.185772
2022-11-05T10:09:46.568Z,51.185772
2022-11-05T10:10:46.563Z,51.185806
2022-11-05T10:11:47.088Z,51.185802
2022-11-05T10:12:46.576Z,51.185776
2022-11-05T10:13:46.539Z,51.185787
2022-11-05T10:14:46.543Z,51.185738
2022-11-05T10:15:46.531Z,51.185722
2022-11-05T10:16:46.519Z,51.185768
2022-11-05T10:17:46.506Z,51.185703
2022-11-05T10:18:46.496Z,51.185730
2022-11-05T10:19:46.493Z,51.185741
2022-11-05T10:20:46.530Z,51.185753
2022-11-05T10:22:49.615Z,51.185802
2022-11-05T10:23:46.496Z,51.185799
2022-11-05T10:24:46.504Z,51.185783
2022-11-05T10:25:46.454Z,51.185799
2022-11-05T10:26:47.422Z,51.185738
2022-11-05T10:27:46.453Z,51.185791
2022-11-05T10:28:46.419Z,51.185787
2022-11-05T10:29:46.441Z,51.185707
2022-11-05T10:30:46.413Z,51.185726
2022-11-05T10:31:46.397Z,51.185722
2022-11-05T10:32:46.404Z,51.185764
2022-11-05T10:33:47.352Z,51.185818
2022-11-05T10:34:46.439Z,51.185772
2022-11-05T10:35:46.384Z,51.185799
2022-11-05T10:36:46.381Z,51.185768
2022-11-05T10:37:46.381Z,51.185776
2022-11-05T10:38:46.353Z,51.185776
2022-11-05T10:39:46.354Z,51.185745
2022-11-05T10:40:46.339Z,51.185760
2022-11-05T10:41:46.333Z,51.185760
2022-11-05T10:42:46.333Z,51.185757
2022-11-05T10:43:46.340Z,51.185757
2022-11-05T10:44:46.340Z,51.185734
2022-11-05T10:45:46.317Z,51.185802
2022-11-05T10:46:46.346Z,51.185738
2022-11-05T10:47:46.294Z,51.185719
2022-11-05T10:48:46.293Z,51.185696
2022-11-05T10:49:46.408Z,51.185692
2022-11-05T10:50:46.270Z,51.185757
2022-11-05T10:51:46.284Z,51.185780
2022-11-05T10:52:46.263Z,51.185776
2022-11-05T10:53:46.312Z,51.185760
2022-11-05T10:54:46.266Z,51.185757
2022-11-05T10:55:46.237Z,51.185757
2022-11-05T10:56:46.217Z,51.185764
2022-11-05T10:57:46.227Z,51.185799
2022-11-05T10:58:46.228Z,51.185776
2022-11-05T10:59:46.204Z,51.185825
2022-11-05T11:00:46.287Z,51.185802
2022-11-05T11:01:46.279Z,51.185776
2022-11-05T11:02:46.172Z,51.185810
2022-11-05T11:03:46.167Z,51.185841
2022-11-05T11:04:46.212Z,51.185806
2022-11-05T11:05:46.161Z,51.185822
2022-11-05T11:06:46.153Z,51.185844
2022-11-05T11:07:46.145Z,51.185837
2022-11-05T11:08:46.130Z,51.185879
2022-11-05T11:09:46.613Z,51.185822
2022-11-05T11:10:46.115Z,51.185764
2022-11-05T11:11:46.109Z,51.185795
2022-11-05T11:12:46.106Z,51.185776
2022-11-05T11:13:46.156Z,51.185776
2022-11-05T11:14:46.108Z,51.185787
2022-11-05T11:15:46.085Z,51.185787
2022-11-05T11:16:46.082Z,51.185738
2022-11-05T11:17:46.203Z,51.185722
2022-11-05T11:18:46.082Z,51.185726
2022-11-05T11:19:46.075Z,51.185802
2022-11-05T11:20:46.044Z,51.185848
2022-11-05T11:21:46.054Z,51.185822
2022-11-05T11:22:46.066Z,51.185810
2022-11-05T11:23:46.099Z,51.185810
2022-11-05T11:24:46.035Z,51.185818
2022-11-05T11:25:46.043Z,51.185753